createdAt,value
2019-02-26T00:02:02.700Z,10.70
2019-02-26T00:04:32.621Z,10.70
2019-02-26T00:07:00.390Z,10.47
2019-02-26T00:09:29.977Z,11.13
2019-02-26T00:11:57.599Z,10.20
2019-02-26T00:14:27.380Z,9.93
2019-02-26T00:16:54.619Z,10.10
2019-02-26T00:19:22.277Z,9.80
2019-02-26T00:21:51.791Z,10.80
2019-02-26T00:24:19.303Z,10.20
2019-02-26T00:26:46.984Z,10.50
2019-02-26T00:29:14.636Z,10.47
2019-02-26T00:31:43.403Z,11.33
2019-02-26T00:34:14.039Z,11.43
2019-02-26T00:36:41.027Z,10.83
2019-02-26T00:39:08.682Z,11.43
2019-02-26T00:41:36.338Z,11.17
2019-02-26T00:44:04.731Z,10.17
2019-02-26T00:46:34.742Z,10.97
2019-02-26T00:49:03.120Z,11.07
2019-02-26T00:51:32.109Z,11.23
2019-02-26T00:54:00.206Z,10.93
2019-02-26T00:56:29.853Z,11.60
2019-02-26T00:58:58.500Z,10.63
2019-02-26T01:01:26.170Z,10.23
2019-02-26T01:03:53.830Z,11.07
2019-02-26T01:06:22.538Z,11.07
2019-02-26T01:08:50.855Z,10.40
2019-02-26T01:11:19.502Z,10.63
2019-02-26T01:13:48.749Z,11.07
2019-02-26T01:16:16.929Z,11.30
2019-02-26T01:18:46.688Z,11.17
2019-02-26T01:21:13.946Z,11.53
2019-02-26T01:23:41.607Z,11.43
2019-02-26T01:26:10.068Z,11.03
2019-02-26T01:28:39.652Z,11.10
2019-02-26T01:31:07.483Z,11.70
2019-02-26T01:33:35.150Z,11.03
2019-02-26T01:36:02.817Z,11.13
2019-02-26T01:38:30.461Z,11.17
2019-02-26T01:40:58.123Z,11.90
2019-02-26T01:43:25.784Z,10.87
2019-02-26T01:45:55.367Z,10.97
2019-02-26T01:48:22.822Z,11.77
2019-02-26T01:50:52.117Z,11.37
2019-02-26T01:53:21.412Z,10.47
2019-02-26T01:55:50.540Z,10.57
2019-02-26T01:58:18.352Z,11.00
2019-02-26T02:00:46.012Z,10.37
2019-02-26T02:03:13.666Z,10.77
2019-02-26T02:05:43.136Z,11.43
2019-02-26T02:08:13.074Z,10.53
2019-02-26T02:10:40.090Z,11.30
2019-02-26T02:13:09.313Z,10.30
2019-02-26T02:15:37.915Z,11.20
2019-02-26T02:18:06.478Z,9.70
2019-02-26T02:20:34.142Z,10.50
2019-02-26T02:23:02.677Z,9.47
2019-02-26T02:25:33.302Z,10.47
2019-02-26T02:28:02.679Z,10.63
2019-02-26T02:30:31.461Z,10.80
2019-02-26T02:33:00.131Z,10.23
2019-02-26T02:35:28.614Z,9.80
2019-02-26T02:37:57.063Z,10.07
2019-02-26T02:40:25.634Z,10.37
2019-02-26T02:42:53.285Z,10.30
2019-02-26T02:45:21.422Z,10.43
2019-02-26T02:47:54.793Z,9.80
2019-02-26T02:50:18.727Z,9.53
2019-02-26T02:52:46.516Z,9.73
2019-02-26T02:55:17.210Z,10.77
2019-02-26T02:57:43.532Z,9.43
2019-02-26T03:00:11.485Z,10.80
2019-02-26T03:02:42.791Z,10.47
2019-02-26T03:05:08.526Z,10.90
2019-02-26T03:07:36.182Z,10.90
2019-02-26T03:10:06.746Z,9.57
2019-02-26T03:12:34.134Z,9.80
2019-02-26T03:15:02.262Z,10.17
2019-02-26T03:17:31.169Z,10.37
2019-02-26T03:20:01.641Z,10.17
2019-02-26T03:22:28.219Z,11.13
2019-02-26T03:24:57.500Z,10.37
2019-02-26T03:27:27.834Z,9.37
2019-02-26T03:29:56.235Z,10.77
2019-02-26T03:32:23.983Z,10.03
2019-02-26T03:34:51.649Z,10.83
2019-02-26T03:37:19.393Z,10.00
2019-02-26T03:39:47.065Z,10.20
2019-02-26T03:42:16.660Z,10.97
2019-02-26T03:44:46.582Z,10.27
2019-02-26T03:47:13.479Z,10.27
2019-02-26T03:49:42.284Z,10.57
2019-02-26T03:52:10.093Z,9.83
2019-02-26T03:54:40.224Z,9.60
2019-02-26T03:57:09.024Z,10.57
2019-02-26T03:59:36.495Z,10.93
2019-02-26T04:02:04.153Z,10.47
2019-02-26T04:04:33.636Z,9.63
2019-02-26T04:07:02.113Z,9.60
2019-02-26T04:09:30.569Z,11.13
2019-02-26T04:11:58.217Z,10.50
2019-02-26T04:14:28.273Z,9.60
2019-02-26T04:16:57.443Z,9.77
2019-02-26T04:19:26.793Z,10.27
2019-02-26T04:21:53.981Z,10.00
2019-02-26T04:24:23.279Z,10.30
2019-02-26T04:26:51.016Z,9.80
2019-02-26T04:29:18.704Z,9.97
2019-02-26T04:31:47.083Z,11.07
2019-02-26T04:34:15.799Z,10.53
2019-02-26T04:36:44.825Z,9.70
2019-02-26T04:39:15.834Z,11.10
2019-02-26T04:41:42.197Z,10.67
2019-02-26T04:44:09.871Z,11.33
2019-02-26T04:46:39.511Z,9.90
2019-02-26T04:49:06.905Z,10.40
2019-02-26T04:51:36.299Z,10.80
2019-02-26T04:54:03.941Z,10.33
2019-02-26T04:56:36.001Z,9.33
2019-02-26T04:59:03.625Z,9.57
2019-02-26T05:01:30.345Z,10.83
2019-02-26T05:03:58.003Z,9.93
2019-02-26T05:06:25.670Z,10.43
2019-02-26T05:08:55.926Z,10.17
2019-02-26T05:11:31.415Z,10.37
2019-02-26T05:13:52.062Z,10.30
2019-02-26T05:16:19.738Z,10.53
2019-02-26T05:18:49.596Z,10.97
2019-02-26T05:21:16.774Z,10.47
2019-02-26T05:23:46.325Z,10.60
2019-02-26T05:26:15.143Z,10.97
2019-02-26T05:28:44.214Z,9.67
2019-02-26T05:31:15.154Z,10.87
2019-02-26T05:33:41.940Z,11.30
2019-02-26T05:36:12.191Z,10.63
2019-02-26T05:38:38.972Z,10.53
2019-02-26T05:41:06.732Z,10.37
2019-02-26T05:43:34.394Z,11.13
2019-02-26T05:46:03.935Z,10.60
2019-02-26T05:48:31.421Z,11.27
2019-02-26T05:51:01.033Z,11.40
2019-02-26T05:53:28.470Z,11.87
2019-02-26T05:55:56.161Z,12.67
2019-02-26T05:58:23.807Z,11.40
2019-02-26T06:00:51.553Z,12.20
2019-02-26T06:03:19.213Z,12.53
2019-02-26T06:05:48.961Z,12.47
2019-02-26T06:08:16.258Z,11.47
2019-02-26T06:10:43.913Z,11.93
2019-02-26T06:13:13.555Z,10.97
2019-02-26T06:15:40.936Z,11.03
2019-02-26T06:18:08.593Z,11.17
2019-02-26T06:20:36.727Z,10.80
2019-02-26T06:23:04.495Z,11.83
2019-02-26T06:25:32.159Z,11.20
2019-02-26T06:28:02.318Z,12.17
2019-02-26T06:30:29.182Z,12.03
2019-02-26T06:32:59.685Z,11.97
2019-02-26T06:35:26.221Z,12.40
2019-02-26T06:37:53.865Z,11.83
2019-02-26T06:40:21.534Z,11.43
2019-02-26T06:42:49.203Z,10.77
2019-02-26T06:45:17.121Z,11.23
2019-02-26T06:47:45.775Z,12.80
2019-02-26T06:50:18.022Z,11.77
2019-02-26T06:52:45.380Z,11.97
2019-02-26T06:55:12.925Z,13.20
2019-02-26T06:57:41.315Z,14.40
2019-02-26T07:00:09.943Z,12.73
2019-02-26T07:02:37.597Z,14.13
2019-02-26T07:05:05.274Z,12.60
2019-02-26T07:07:32.928Z,12.53
2019-02-26T07:10:00.592Z,13.13
2019-02-26T07:12:28.255Z,13.10
2019-02-26T07:14:58.005Z,11.77
2019-02-26T07:17:26.927Z,12.60
2019-02-26T07:19:55.907Z,12.43
2019-02-26T07:22:24.014Z,11.67
2019-02-26T07:24:53.846Z,11.40
2019-02-26T07:27:21.055Z,14.03
2019-02-26T07:29:52.202Z,13.80
2019-02-26T07:32:20.197Z,15.07
2019-02-26T07:34:49.675Z,13.00
2019-02-26T07:37:16.866Z,11.83
2019-02-26T07:39:46.693Z,11.90
2019-02-26T07:42:16.326Z,11.07
2019-02-26T07:44:43.275Z,10.90
2019-02-26T07:47:11.331Z,12.33
2019-02-26T07:49:39.073Z,11.63
2019-02-26T07:52:08.679Z,11.97
2019-02-26T07:54:37.799Z,11.80
2019-02-26T07:57:05.475Z,11.77
2019-02-26T07:59:34.823Z,12.77
2019-02-26T08:02:03.792Z,13.00
2019-02-26T08:04:33.961Z,12.97
2019-02-26T08:07:01.938Z,12.40
2019-02-26T08:09:30.603Z,11.97
2019-02-26T08:11:58.262Z,10.90
2019-02-26T08:14:26.019Z,12.13
2019-02-26T08:16:56.062Z,12.97
2019-02-26T08:19:23.045Z,12.30
2019-02-26T08:21:52.640Z,12.33
2019-02-26T08:24:24.410Z,11.80
2019-02-26T08:26:49.802Z,10.53
2019-02-26T08:29:17.606Z,11.40
2019-02-26T08:31:47.449Z,11.67
2019-02-26T08:34:15.798Z,11.53
2019-02-26T08:36:46.188Z,12.27
2019-02-26T08:39:15.711Z,12.13
2019-02-26T08:41:42.303Z,11.80
2019-02-26T08:44:09.962Z,12.17
2019-02-26T08:46:39.669Z,12.93
2019-02-26T08:49:08.711Z,10.77
2019-02-26T08:51:36.386Z,12.47
2019-02-26T08:54:04.041Z,12.40
2019-02-26T08:56:34.281Z,12.47
2019-02-26T08:59:03.506Z,12.73
2019-02-26T09:01:30.447Z,12.60
2019-02-26T09:03:58.984Z,12.70
2019-02-26T09:06:27.469Z,12.47
2019-02-26T09:08:57.344Z,11.80
2019-02-26T09:11:26.221Z,11.40
2019-02-26T09:13:56.320Z,12.67
2019-02-26T09:16:25.125Z,12.00
2019-02-26T09:18:52.604Z,12.23
2019-02-26T09:21:21.134Z,11.87
2019-02-26T09:23:52.825Z,12.57
2019-02-26T09:26:19.008Z,13.23
2019-02-26T09:28:48.156Z,11.60
2019-02-26T09:31:16.046Z,11.87
2019-02-26T09:33:45.502Z,12.23
2019-02-26T09:36:15.711Z,12.30
2019-02-26T09:38:44.285Z,11.70
2019-02-26T09:41:13.997Z,11.33
2019-02-26T09:43:43.180Z,13.17
2019-02-26T09:46:14.399Z,12.03
2019-02-26T09:48:41.116Z,11.03
2019-02-26T09:51:09.852Z,10.67
2019-02-26T09:53:38.698Z,13.03
2019-02-26T09:56:06.370Z,12.50
2019-02-26T09:58:34.033Z,11.50
2019-02-26T10:01:01.707Z,11.23
2019-02-26T10:03:29.689Z,11.60
2019-02-26T10:05:58.757Z,12.50
2019-02-26T10:08:28.124Z,12.97
2019-02-26T10:10:57.678Z,11.93
2019-02-26T10:13:27.707Z,12.13
2019-02-26T10:15:56.412Z,11.97
2019-02-26T10:18:25.648Z,11.23
2019-02-26T10:20:54.693Z,11.57
2019-02-26T10:23:24.034Z,11.33
2019-02-26T10:25:55.519Z,11.10
2019-02-26T10:28:21.638Z,11.50
2019-02-26T10:30:50.082Z,12.53
2019-02-26T10:33:18.570Z,11.77
2019-02-26T10:35:49.539Z,13.20
2019-02-26T10:38:16.502Z,11.67
2019-02-26T10:40:53.199Z,11.97
2019-02-26T10:43:13.549Z,12.27
2019-02-26T10:45:44.145Z,12.00
2019-02-26T10:48:10.600Z,12.67
2019-02-26T10:50:40.355Z,11.60
2019-02-26T10:53:10.588Z,11.17
2019-02-26T10:55:41.192Z,11.80
2019-02-26T10:58:10.012Z,10.87
2019-02-26T11:00:37.887Z,12.07
2019-02-26T11:03:06.553Z,12.00
2019-02-26T11:05:37.199Z,11.73
2019-02-26T11:08:08.823Z,12.20
2019-02-26T11:10:33.894Z,11.63
2019-02-26T11:13:01.600Z,10.87
2019-02-26T11:15:32.726Z,11.50
2019-02-26T11:17:58.715Z,10.03
2019-02-26T11:20:28.322Z,9.53
2019-02-26T11:22:55.765Z,10.33
2019-02-26T11:25:24.850Z,10.80
2019-02-26T11:27:52.849Z,10.23
2019-02-26T11:30:22.928Z,10.23
2019-02-26T11:32:49.891Z,9.73
2019-02-26T11:35:19.558Z,9.90
2019-02-26T11:37:47.979Z,11.47
2019-02-26T11:40:17.419Z,10.03
2019-02-26T11:42:46.713Z,10.93
2019-02-26T11:45:17.482Z,10.03
2019-02-26T11:47:44.514Z,9.37
2019-02-26T11:50:12.214Z,10.13
2019-02-26T11:52:39.911Z,8.73
2019-02-26T11:55:09.409Z,8.50
2019-02-26T11:57:37.675Z,9.07
2019-02-26T12:00:09.156Z,7.77
2019-02-26T12:02:38.728Z,8.73
2019-02-26T12:05:08.045Z,8.37
2019-02-26T12:07:35.791Z,8.87
2019-02-26T12:10:09.306Z,8.07
2019-02-26T12:12:34.199Z,8.80
2019-02-26T12:15:04.427Z,8.17
2019-02-26T12:17:31.732Z,8.73
2019-02-26T12:20:00.410Z,8.50
2019-02-26T12:22:29.883Z,8.77
2019-02-26T12:24:58.805Z,8.87
2019-02-26T12:27:27.074Z,8.77
2019-02-26T12:29:54.807Z,9.10
2019-02-26T12:32:24.884Z,9.03
2019-02-26T12:34:51.859Z,9.60
2019-02-26T12:37:19.521Z,9.07
2019-02-26T12:39:49.571Z,9.60
2019-02-26T12:42:18.450Z,8.63
2019-02-26T12:44:45.932Z,9.33
2019-02-26T12:47:15.444Z,8.70
2019-02-26T12:49:45.110Z,9.30
2019-02-26T12:52:12.383Z,9.60
2019-02-26T12:54:42.748Z,9.90
2019-02-26T12:57:09.405Z,9.60
2019-02-26T12:59:37.070Z,9.33
2019-02-26T13:02:05.437Z,8.23
2019-02-26T13:04:34.117Z,8.90
2019-02-26T13:07:01.863Z,8.90
2019-02-26T13:09:29.611Z,9.03
2019-02-26T13:12:02.447Z,8.20
2019-02-26T13:14:26.669Z,8.00
2019-02-26T13:16:57.144Z,8.00
2019-02-26T13:19:26.397Z,7.80
2019-02-26T13:21:56.277Z,7.73
2019-02-26T13:24:26.108Z,8.47
2019-02-26T13:26:54.493Z,8.10
2019-02-26T13:29:21.189Z,7.27
2019-02-26T13:31:56.208Z,8.20
2019-02-26T13:34:18.330Z,7.90
2019-02-26T13:36:52.231Z,8.13
2019-02-26T13:39:22.026Z,8.90
2019-02-26T13:41:44.750Z,8.87
2019-02-26T13:44:12.506Z,8.23
2019-02-26T13:46:40.176Z,7.73
2019-02-26T13:49:07.857Z,7.43
2019-02-26T13:51:35.527Z,7.87
2019-02-26T13:54:03.197Z,7.77
2019-02-26T13:56:30.854Z,8.30
2019-02-26T13:58:58.523Z,8.73
2019-02-26T14:01:26.203Z,7.73
2019-02-26T14:03:53.876Z,8.97
2019-02-26T14:06:21.542Z,8.27
2019-02-26T14:08:49.589Z,7.40
2019-02-26T14:11:17.253Z,8.67
2019-02-26T14:13:44.911Z,7.87
2019-02-26T14:16:12.580Z,8.00
2019-02-26T14:18:40.247Z,8.00
2019-02-26T14:21:07.915Z,7.73
2019-02-26T14:23:35.888Z,7.50
2019-02-26T14:26:03.632Z,8.43
2019-02-26T14:28:31.298Z,7.33
2019-02-26T14:30:58.963Z,7.27
2019-02-26T14:33:26.629Z,7.70
2019-02-26T14:35:54.302Z,7.53
2019-02-26T14:38:21.973Z,7.40
2019-02-26T14:40:49.651Z,7.57
2019-02-26T14:43:17.385Z,8.33
2019-02-26T14:45:45.049Z,7.67
2019-02-26T14:48:13.862Z,8.17
2019-02-26T14:50:41.662Z,7.47
2019-02-26T14:53:09.327Z,7.40
2019-02-26T14:55:36.997Z,7.93
2019-02-26T14:58:04.741Z,8.23
2019-02-26T15:00:32.687Z,7.80
2019-02-26T15:03:00.363Z,7.70
2019-02-26T15:05:28.032Z,7.47
2019-02-26T15:07:55.694Z,7.80
2019-02-26T15:10:23.358Z,7.97
2019-02-26T15:12:51.010Z,7.97
2019-02-26T15:15:18.689Z,7.80
2019-02-26T15:17:46.438Z,8.77
2019-02-26T15:20:14.110Z,7.60
2019-02-26T15:22:41.854Z,7.40
2019-02-26T15:25:09.690Z,7.63
2019-02-26T15:27:38.928Z,7.37
2019-02-26T15:30:06.738Z,8.10
2019-02-26T15:32:34.409Z,8.40
2019-02-26T15:35:02.083Z,7.87
2019-02-26T15:37:29.750Z,8.40
2019-02-26T15:39:57.706Z,7.37
2019-02-26T15:42:25.375Z,8.03
2019-02-26T15:44:53.042Z,7.80
2019-02-26T15:47:20.718Z,8.27
2019-02-26T15:49:48.387Z,9.10
2019-02-26T15:52:16.439Z,8.20
2019-02-26T15:54:44.113Z,7.93
2019-02-26T15:57:11.765Z,8.33
2019-02-26T15:59:39.434Z,8.43
2019-02-26T16:02:07.107Z,8.00
2019-02-26T16:04:34.776Z,8.77
2019-02-26T16:07:02.438Z,8.70
2019-02-26T16:09:30.108Z,9.50
2019-02-26T16:11:57.786Z,7.83
2019-02-26T16:14:25.451Z,8.90
2019-02-26T16:16:53.123Z,8.40
2019-02-26T16:19:21.071Z,9.17
2019-02-26T16:21:48.753Z,8.97
2019-02-26T16:24:16.430Z,8.63
2019-02-26T16:26:44.104Z,9.17
2019-02-26T16:29:11.775Z,8.83
2019-02-26T16:31:39.438Z,8.70
2019-02-26T16:34:07.107Z,8.63
2019-02-26T16:36:34.783Z,9.60
2019-02-26T16:39:02.452Z,8.83
2019-02-26T16:41:30.124Z,9.40
2019-02-26T16:43:57.787Z,8.50
2019-02-26T16:46:25.855Z,9.17
2019-02-26T16:48:54.111Z,8.87
2019-02-26T16:51:21.949Z,8.67
2019-02-26T16:53:49.601Z,8.67
2019-02-26T16:56:19.644Z,9.47
2019-02-26T16:58:46.706Z,9.00
2019-02-26T17:01:14.369Z,9.17
2019-02-26T17:03:42.042Z,9.70
2019-02-26T17:06:09.718Z,9.00
2019-02-26T17:08:37.416Z,9.47
2019-02-26T17:11:05.088Z,10.80
2019-02-26T17:13:33.122Z,9.70
2019-02-26T17:16:00.792Z,9.17
2019-02-26T17:18:28.462Z,9.90
2019-02-26T17:20:56.961Z,9.77
2019-02-26T17:23:25.175Z,10.07
2019-02-26T17:25:52.847Z,9.67
2019-02-26T17:28:20.582Z,9.13
2019-02-26T17:30:48.251Z,9.13
2019-02-26T17:33:15.914Z,9.73
2019-02-26T17:35:43.586Z,10.20
2019-02-26T17:38:12.858Z,9.93
2019-02-26T17:40:40.640Z,10.10
2019-02-26T17:43:08.306Z,9.20
2019-02-26T17:45:37.188Z,10.53
2019-02-26T17:48:05.350Z,9.20
2019-02-26T17:50:33.017Z,10.33
2019-02-26T17:53:00.679Z,11.47
2019-02-26T17:55:28.352Z,9.97
2019-02-26T17:57:56.008Z,10.30
2019-02-26T18:00:24.478Z,10.33
2019-02-26T18:02:52.147Z,9.87
2019-02-26T18:05:19.831Z,9.53
2019-02-26T18:07:47.498Z,8.93
2019-02-26T18:10:15.163Z,9.40
2019-02-26T18:12:43.314Z,9.63
2019-02-26T18:15:11.131Z,10.27
2019-02-26T18:17:38.798Z,10.40
2019-02-26T18:20:06.467Z,10.53
2019-02-26T18:22:34.134Z,9.80
2019-02-26T18:25:01.792Z,10.97
2019-02-26T18:27:30.637Z,10.07
2019-02-26T18:29:58.808Z,9.80
2019-02-26T18:32:26.474Z,11.37
2019-02-26T18:34:54.141Z,10.53
2019-02-26T18:37:21.818Z,10.10
2019-02-26T18:39:49.486Z,9.83
2019-02-26T18:42:17.159Z,10.63
2019-02-26T18:44:44.833Z,10.07
2019-02-26T18:47:12.491Z,10.30
2019-02-26T18:49:40.158Z,10.37
2019-02-26T18:52:08.713Z,10.77
2019-02-26T18:54:36.859Z,10.13
2019-02-26T18:57:04.535Z,10.13
2019-02-26T18:59:32.193Z,10.13
2019-02-26T19:02:03.313Z,9.50
2019-02-26T19:04:29.222Z,9.97
2019-02-26T19:06:59.484Z,9.67
2019-02-26T19:09:27.758Z,8.97
2019-02-26T19:11:57.707Z,10.83
2019-02-26T19:14:24.985Z,10.30
2019-02-26T19:16:54.850Z,10.97
2019-02-26T19:19:22.012Z,10.90
2019-02-26T19:21:51.789Z,10.47
2019-02-26T19:24:19.040Z,10.80
2019-02-26T19:26:47.388Z,10.30
2019-02-26T19:29:15.247Z,10.17
2019-02-26T19:31:43.301Z,10.27
2019-02-26T19:34:11.066Z,10.03
2019-02-26T19:36:38.742Z,10.77
2019-02-26T19:39:06.398Z,11.20
2019-02-26T19:41:34.071Z,10.67
2019-02-26T19:44:01.716Z,11.67
2019-02-26T19:46:29.393Z,11.03
2019-02-26T19:48:57.066Z,10.57
2019-02-26T19:51:25.521Z,10.77
2019-02-26T19:53:53.390Z,10.73
2019-02-26T19:56:23.594Z,11.13
2019-02-26T19:58:50.427Z,11.03
2019-02-26T20:01:18.089Z,10.70
2019-02-26T20:03:45.755Z,9.97
2019-02-26T20:06:13.417Z,11.33
2019-02-26T20:08:41.119Z,10.37
2019-02-26T20:11:08.783Z,11.13
2019-02-26T20:13:41.901Z,10.50
2019-02-26T20:16:05.811Z,11.23
2019-02-26T20:18:33.474Z,11.07
2019-02-26T20:21:01.135Z,10.67
2019-02-26T20:23:28.805Z,11.40
2019-02-26T20:25:56.471Z,10.97
2019-02-26T20:28:24.129Z,10.60
2019-02-26T20:30:51.799Z,11.83
2019-02-26T20:33:19.450Z,11.40
2019-02-26T20:35:47.115Z,11.20
2019-02-26T20:38:14.788Z,11.10
2019-02-26T20:40:42.448Z,11.17
2019-02-26T20:43:10.118Z,11.80
2019-02-26T20:45:37.786Z,10.43
2019-02-26T20:48:05.454Z,10.67
2019-02-26T20:50:33.124Z,11.23
2019-02-26T20:53:00.775Z,12.60
2019-02-26T20:55:28.457Z,11.37
2019-02-26T20:57:56.122Z,12.00
2019-02-26T21:00:25.278Z,11.57
2019-02-26T21:02:53.153Z,11.07
2019-02-26T21:05:20.806Z,12.43
2019-02-26T21:07:49.693Z,11.50
2019-02-26T21:10:17.620Z,12.07
2019-02-26T21:12:45.310Z,11.93
2019-02-26T21:15:13.870Z,11.40
2019-02-26T21:17:42.080Z,12.33
2019-02-26T21:20:09.747Z,12.37
2019-02-26T21:22:37.414Z,11.70
2019-02-26T21:25:05.074Z,13.43
2019-02-26T21:27:32.740Z,13.67
2019-02-26T21:30:00.402Z,12.23
2019-02-26T21:32:28.069Z,11.63
2019-02-26T21:34:55.721Z,12.63
2019-02-26T21:37:23.387Z,11.93
2019-02-26T21:39:51.055Z,11.57
2019-02-26T21:42:18.717Z,11.87
2019-02-26T21:44:46.380Z,11.70
2019-02-26T21:47:14.035Z,12.27
2019-02-26T21:49:41.693Z,12.03
2019-02-26T21:52:09.568Z,11.00
2019-02-26T21:54:37.309Z,11.67
2019-02-26T21:57:04.967Z,12.47
2019-02-26T21:59:33.233Z,11.80
2019-02-26T22:02:01.069Z,13.27
2019-02-26T22:04:31.742Z,12.13
2019-02-26T22:06:58.101Z,11.47
2019-02-26T22:09:29.922Z,12.50
2019-02-26T22:11:55.146Z,11.33
2019-02-26T22:14:22.821Z,12.90
2019-02-26T22:16:51.500Z,13.90
2019-02-26T22:19:19.727Z,12.50
2019-02-26T22:21:51.659Z,12.83
2019-02-26T22:24:16.764Z,13.90
2019-02-26T22:26:44.409Z,11.80
2019-02-26T22:29:12.926Z,12.57
2019-02-26T22:31:41.456Z,13.47
2019-02-26T22:34:09.117Z,12.87
2019-02-26T22:36:36.786Z,12.00
2019-02-26T22:39:04.453Z,12.53
2019-02-26T22:41:32.751Z,13.10
2019-02-26T22:44:01.498Z,12.20
2019-02-26T22:46:29.153Z,13.90
2019-02-26T22:48:56.834Z,12.70
2019-02-26T22:51:24.505Z,12.83
2019-02-26T22:53:52.249Z,14.17
2019-02-26T22:56:21.916Z,14.50
2019-02-26T22:58:49.297Z,13.20
2019-02-26T23:01:19.806Z,13.93
2019-02-26T23:03:47.474Z,13.60
2019-02-26T23:06:15.131Z,12.60
2019-02-26T23:08:44.725Z,13.00
2019-02-26T23:11:12.645Z,13.43
2019-02-26T23:13:40.303Z,14.63
2019-02-26T23:16:07.957Z,13.77
2019-02-26T23:18:35.953Z,13.60
2019-02-26T23:21:03.621Z,13.73
2019-02-26T23:23:31.326Z,13.07
2019-02-26T23:25:59.026Z,13.73
2019-02-26T23:28:26.700Z,13.83
2019-02-26T23:30:54.355Z,14.00
2019-02-26T23:33:22.016Z,14.53
2019-02-26T23:35:49.699Z,14.00
2019-02-26T23:38:17.354Z,14.13
2019-02-26T23:40:45.009Z,13.63
2019-02-26T23:43:12.656Z,12.83
2019-02-26T23:45:40.312Z,15.77
2019-02-26T23:48:08.643Z,14.57
2019-02-26T23:50:36.419Z,14.27
2019-02-26T23:53:04.079Z,13.63
2019-02-26T23:55:31.736Z,13.20
2019-02-26T23:57:59.393Z,14.53
